Time;durP1;ratioP1;P1;durP2;ratioP2;P2;SDS_P1;SDS_P2;PMS_P1;PMS_P2;Temp;Humidity;BMP_temperature;BMP_pressure;BME280_temperature;BME280_humidity;BME280_pressure;Samples;Min_cycle;Max_cycle;Signal;HPM_P1;HPM_P2
2021/12/19 00:00:48;;;;;;;6.97;1.85;;;7.90;99.90;;;;;;5045694;28;20480;-82
2021/12/19 00:03:36;;;;;;;4.18;2.33;;;7.80;99.90;;;;;;5045871;28;20056;-83
2021/12/19 00:08:52;;;;;;;9.55;3.22;;;7.70;99.90;;;;;;5044292;28;20052;-82
2021/12/19 00:11:20;;;;;;;5.28;3.42;;;7.80;99.90;;;;;;5047399;28;20052;-83
2021/12/19 00:13:47;;;;;;;6.47;3.38;;;8.60;99.90;;;;;;5046791;28;20045;-83
2021/12/19 00:16:13;;;;;;;11.82;3.45;;;7.80;99.90;;;;;;5044965;28;20036;-83
2021/12/19 00:18:41;;;;;;;10.35;4.13;;;8.00;99.90;;;;;;5047084;28;20064;-83
2021/12/19 00:21:06;;;;;;;10.93;3.80;;;7.80;99.90;;;;;;5044920;28;20075;-84
2021/12/19 00:23:32;;;;;;;11.93;4.20;;;7.80;99.90;;;;;;5047323;28;20041;-84
2021/12/19 00:25:58;;;;;;;9.00;4.63;;;7.80;99.90;;;;;;5044734;28;20471;-83
2021/12/19 00:28:24;;;;;;;8.85;3.88;;;7.80;99.90;;;;;;5045862;28;20080;-84
2021/12/19 00:30:50;;;;;;;14.05;4.45;;;7.90;99.90;;;;;;5061928;28;20033;-83
2021/12/19 00:33:16;;;;;;;7.75;3.47;;;7.80;99.90;;;;;;5046156;28;20382;-83
2021/12/19 00:35:42;;;;;;;6.85;3.50;;;7.80;99.90;;;;;;5045803;28;20049;-83
2021/12/19 00:38:08;;;;;;;6.05;3.15;;;7.80;99.90;;;;;;5045971;28;20037;-83
2021/12/19 00:40:34;;;;;;;12.98;3.47;;;8.20;99.90;;;;;;5046655;28;20369;-84
2021/12/19 00:43:06;;;;;;;5.93;2.05;;;7.80;99.90;;;;;;5045289;28;20110;-83
2021/12/19 00:45:34;;;;;;;4.85;1.65;;;7.80;99.90;;;;;;5046767;28;20404;-84
2021/12/19 00:48:03;;;;;;;2.63;1.50;;;9.10;99.90;;;;;;5060875;28;20159;-83
2021/12/19 00:50:29;;;;;;;4.40;1.63;;;7.80;99.90;;;;;;5045819;28;20048;-83
2021/12/19 00:52:55;;;;;;;3.50;1.10;;;9.90;99.90;;;;;;5061452;28;20531;-84
2021/12/19 00:55:23;;;;;;;2.97;1.13;;;8.80;99.90;;;;;;5045429;28;20076;-83
2021/12/19 00:57:49;;;;;;;2.25;0.50;;;7.80;99.90;;;;;;5060817;28;20037;-83
2021/12/19 01:00:18;;;;;;;3.72;0.40;;;9.60;99.90;;;;;;5044164;28;20450;-83
2021/12/19 01:02:44;;;;;;;0.88;0.20;;;7.70;99.90;;;;;;5044502;28;20060;-83
2021/12/19 01:05:11;;;;;;;1.02;0.30;;;7.70;99.90;;;;;;5045852;28;20053;-83
2021/12/19 01:07:38;;;;;;;1.75;0.20;;;7.60;99.90;;;;;;5044536;28;20049;-83
2021/12/19 01:10:07;;;;;;;1.02;0.22;;;8.60;99.90;;;;;;5046233;28;20318;-83
2021/12/19 01:12:36;;;;;;;0.17;0.17;;;7.60;99.90;;;;;;5045377;28;20052;-83
2021/12/19 01:15:04;;;;;;;1.52;0.20;;;7.50;99.90;;;;;;5045824;28;20048;-83
2021/12/19 01:17:30;;;;;;;0.63;0.20;;;7.60;99.90;;;;;;5045302;28;20599;-83
2021/12/19 01:19:56;;;;;;;3.53;0.30;;;9.10;99.90;;;;;;5060798;28;20056;-83
2021/12/19 01:22:22;;;;;;;1.02;0.28;;;7.50;99.90;;;;;;5045689;28;20045;-83
2021/12/19 01:24:48;;;;;;;1.52;0.38;;;7.50;99.90;;;;;;5027233;28;20409;-83
2021/12/19 01:27:13;;;;;;;2.28;0.50;;;7.50;99.90;;;;;;5046108;28;20075;-84
2021/12/19 01:29:39;;;;;;;1.40;0.45;;;9.50;99.90;;;;;;5044979;28;20523;-83
2021/12/19 01:32:05;;;;;;;0.90;0.30;;;7.50;99.90;;;;;;5045828;28;20040;-83
2021/12/19 01:34:30;;;;;;;4.72;0.35;;;7.50;99.90;;;;;;5044508;28;20045;-83
2021/12/19 01:36:56;;;;;;;3.78;0.30;;;7.50;99.90;;;;;;5027209;28;20056;-83
2021/12/19 01:39:22;;;;;;;1.20;0.20;;;9.00;99.90;;;;;;5045293;28;20039;-83
2021/12/19 01:41:53;;;;;;;3.15;0.30;;;7.50;99.90;;;;;;5044686;28;20045;-83
2021/12/19 01:44:19;;;;;;;3.03;0.47;;;8.60;99.90;;;;;;5045373;28;20057;-83
2021/12/19 01:46:46;;;;;;;4.47;0.57;;;7.50;99.90;;;;;;5059746;28;20132;-83
2021/12/19 01:49:17;;;;;;;2.47;0.40;;;7.70;99.90;;;;;;5044023;28;20111;-83
2021/12/19 01:51:44;;;;;;;0.75;0.30;;;7.40;99.90;;;;;;5059578;28;20084;-83
2021/12/19 01:54:10;;;;;;;1.33;0.10;;;7.40;99.90;;;;;;5045181;28;20045;-83
2021/12/19 01:56:36;;;;;;;0.40;0.20;;;7.60;99.90;;;;;;5060546;28;20037;-83
2021/12/19 01:59:03;;;;;;;2.58;0.40;;;7.40;99.90;;;;;;5044446;28;20505;-83
2021/12/19 02:01:28;;;;;;;3.58;0.20;;;8.00;99.90;;;;;;5045284;28;20041;-83
2021/12/19 02:03:54;;;;;;;0.75;0.10;;;8.20;99.90;;;;;;5059288;28;20048;-83
2021/12/19 02:06:20;;;;;;;0.20;0.20;;;7.30;99.90;;;;;;5043439;28;20093;-83
2021/12/19 02:08:48;;;;;;;0.75;0.20;;;7.30;99.90;;;;;;5043888;28;20097;-83
2021/12/19 02:11:15;;;;;;;3.80;0.35;;;7.30;99.90;;;;;;5026462;28;20049;-83
2021/12/19 02:13:41;;;;;;;1.65;0.30;;;8.20;99.90;;;;;;5026459;28;20052;-83
2021/12/19 02:16:06;;;;;;;1.67;0.32;;;7.30;99.90;;;;;;5044158;28;20045;-83
2021/12/19 02:18:32;;;;;;;3.10;0.30;;;7.60;99.90;;;;;;5059954;28;20052;-83
2021/12/19 02:20:59;;;;;;;1.67;0.25;;;9.50;99.90;;;;;;5042582;28;20090;-83
2021/12/19 02:23:28;;;;;;;0.75;0.10;;;7.80;99.90;;;;;;5043528;28;20191;-83
2021/12/19 02:25:55;;;;;;;1.80;0.20;;;7.60;99.90;;;;;;5025796;28;20072;-83
2021/12/19 02:28:21;;;;;;;2.58;0.30;;;8.10;99.90;;;;;;5042667;28;20049;-83
2021/12/19 02:30:48;;;;;;;3.60;0.30;;;7.30;99.90;;;;;;5042496;28;20045;-83
2021/12/19 02:33:17;;;;;;;1.40;0.47;;;7.30;99.90;;;;;;5042290;28;20123;-83
2021/12/19 02:35:50;;;;;;;0.77;0.20;;;5.50;99.90;;;;;;5026486;28;20049;-84
2021/12/19 02:49:26;;;;;;;0.10;0.10;;;7.10;99.90;;;;;;5042860;28;20140;-82
2021/12/19 02:51:54;;;;;;;1.05;0.22;;;7.10;99.90;;;;;;5042286;28;20128;-83
2021/12/19 02:54:21;;;;;;;0.68;0.68;;;7.10;99.90;;;;;;5042547;28;20405;-83
2021/12/19 02:56:46;;;;;;;0.90;0.10;;;7.10;99.90;;;;;;5059679;28;20048;-83
2021/12/19 02:59:12;;;;;;;1.17;0.20;;;7.10;99.90;;;;;;5041737;28;20040;-83
2021/12/19 03:01:38;;;;;;;2.83;0.28;;;7.10;99.90;;;;;;5026558;28;20444;-83
2021/12/19 03:04:06;;;;;;;4.00;0.40;;;7.60;99.90;;;;;;5043215;28;20044;-82
2021/12/19 03:06:32;;;;;;;2.72;0.40;;;8.90;99.90;;;;;;5025926;28;20076;-82
2021/12/19 03:09:03;;;;;;;2.15;0.40;;;7.10;99.90;;;;;;5043426;28;20047;-82
2021/12/19 03:12:07;;;;;;;4.80;0.70;;;7.10;99.90;;;;;;5042104;28;20049;-83
2021/12/19 03:20:06;;;;;;;1.08;0.52;;;7.10;99.90;;;;;;5041532;28;20553;-83
2021/12/19 03:22:32;;;;;;;3.53;0.55;;;7.00;99.90;;;;;;5048153;28;20041;-82
2021/12/19 03:24:58;;;;;;;1.00;0.45;;;7.10;99.90;;;;;;5047421;28;20472;-83
2021/12/19 03:27:24;;;;;;;4.63;0.40;;;7.10;99.90;;;;;;5046851;28;20496;-83
2021/12/19 03:29:49;;;;;;;1.13;0.40;;;7.10;99.90;;;;;;5028858;28;20056;-83
2021/12/19 03:32:15;;;;;;;3.50;0.50;;;7.10;99.90;;;;;;5046166;28;20051;-83
2021/12/19 03:34:41;;;;;;;2.28;0.30;;;7.10;99.90;;;;;;5062788;28;20051;-82
2021/12/19 03:37:07;;;;;;;0.98;0.20;;;5.20;99.90;;;;;;5047363;28;20041;-82
2021/12/19 03:39:38;;;;;;;0.30;0.30;;;7.10;99.90;;;;;;5045895;28;20045;-83
2021/12/19 03:42:05;;;;;;;1.25;0.15;;;7.10;99.90;;;;;;5046669;28;20063;-83
2021/12/19 03:44:31;;;;;;;5.50;0.25;;;7.10;99.90;;;;;;5046596;28;20408;-82
2021/12/19 03:46:56;;;;;;;1.55;0.45;;;7.10;99.90;;;;;;5046904;28;20566;-83
2021/12/19 03:49:22;;;;;;;1.65;0.35;;;7.10;99.90;;;;;;5046283;28;20079;-83
2021/12/19 03:51:48;;;;;;;2.13;0.50;;;8.90;99.90;;;;;;5047079;28;20495;-82
2021/12/19 03:54:14;;;;;;;1.63;0.32;;;7.00;99.90;;;;;;5046829;28;20095;-83
2021/12/19 03:56:40;;;;;;;1.10;0.30;;;7.10;99.90;;;;;;5047665;28;20481;-82
2021/12/19 03:59:06;;;;;;;2.17;0.40;;;7.10;99.90;;;;;;5045025;28;20131;-83
2021/12/19 04:01:32;;;;;;;2.70;0.93;;;7.10;99.90;;;;;;5047143;28;20041;-83
2021/12/19 04:03:58;;;;;;;6.03;0.65;;;7.10;99.90;;;;;;5046488;28;20083;-83
2021/12/19 04:06:25;;;;;;;3.05;1.00;;;7.70;99.90;;;;;;5047579;28;20432;-82
2021/12/19 04:08:51;;;;;;;7.80;1.30;;;7.10;99.90;;;;;;5046860;28;20081;-82
2021/12/19 04:11:18;;;;;;;5.60;1.27;;;7.20;99.90;;;;;;5045203;28;20076;-83
2021/12/19 04:13:43;;;;;;;4.63;1.55;;;7.20;99.90;;;;;;5046911;28;20055;-82
2021/12/19 04:16:09;;;;;;;5.32;1.85;;;8.90;99.90;;;;;;5046008;28;20044;-83
2021/12/19 04:18:35;;;;;;;12.35;1.80;;;7.20;99.90;;;;;;5047477;28;20045;-83
2021/12/19 04:21:01;;;;;;;10.85;1.73;;;7.40;99.90;;;;;;5028017;28;20045;-83
2021/12/19 04:23:30;;;;;;;8.07;1.67;;;7.20;99.90;;;;;;5046796;28;20051;-83
2021/12/19 04:25:57;;;;;;;9.93;1.92;;;7.30;99.90;;;;;;5045585;28;20036;-83
2021/12/19 04:28:22;;;;;;;8.30;1.83;;;7.20;99.90;;;;;;5045504;28;20068;-82
2021/12/19 04:30:49;;;;;;;8.48;1.95;;;7.30;99.90;;;;;;5045322;28;20546;-83
2021/12/19 04:33:15;;;;;;;12.18;2.42;;;7.30;99.90;;;;;;5044512;28;20049;-83
2021/12/19 04:35:44;;;;;;;10.25;2.47;;;7.30;99.90;;;;;;5028822;28;20178;-83
2021/12/19 04:41:09;;;;;;;15.77;2.53;;;7.80;99.90;;;;;;5044982;28;20053;-82
2021/12/19 04:54:55;;;;;;;14.27;3.85;;;7.40;99.90;;;;;;5044387;28;20045;-83
2021/12/19 05:15:28;;;;;;;14.02;3.92;;;7.80;99.90;;;;;;5043953;28;20094;-83
2021/12/19 05:18:00;;;;;;;13.65;4.53;;;7.40;99.90;;;;;;5043908;28;20044;-82
2021/12/19 05:20:28;;;;;;;22.50;5.15;;;8.70;99.90;;;;;;5045186;28;20048;-82
2021/12/19 05:23:05;;;;;;;17.40;4.32;;;8.30;99.90;;;;;;5045241;28;20142;-83
2021/12/19 05:25:31;;;;;;;12.93;4.88;;;7.40;99.90;;;;;;5043479;28;20048;-83
2021/12/19 05:27:58;;;;;;;13.82;4.50;;;8.10;99.90;;;;;;5043813;28;20096;-83
2021/12/19 05:30:25;;;;;;;18.27;4.60;;;7.40;99.90;;;;;;5044205;28;20037;-83
2021/12/19 05:32:53;;;;;;;24.25;4.55;;;8.80;99.90;;;;;;5043401;28;20091;-82
2021/12/19 05:35:29;;;;;;;10.57;4.47;;;9.40;99.90;;;;;;5027084;28;20044;-82
2021/12/19 05:46:07;;;;;;;13.60;3.95;;;8.70;99.90;;;;;;5044421;28;20049;-82
2021/12/19 05:48:32;;;;;;;20.70;3.60;;;7.40;99.90;;;;;;5027332;28;20047;-83
2021/12/19 05:50:58;;;;;;;8.90;2.65;;;7.80;99.90;;;;;;5026243;28;20041;-83
2021/12/19 05:53:24;;;;;;;15.02;3.35;;;7.40;99.90;;;;;;5044889;28;20052;-82
2021/12/19 05:55:49;;;;;;;5.97;3.30;;;8.60;99.90;;;;;;5044798;28;20116;-83
2021/12/19 05:58:15;;;;;;;8.30;3.10;;;7.80;99.90;;;;;;5043643;28;20060;-82
2021/12/19 06:00:41;;;;;;;13.52;3.90;;;7.50;99.90;;;;;;5044921;28;20508;-82
2021/12/19 06:03:07;;;;;;;11.77;3.72;;;9.10;99.90;;;;;;5042758;28;20124;-82
2021/12/19 06:05:33;;;;;;;5.40;2.60;;;7.30;99.90;;;;;;5043515;28;20133;-82
2021/12/19 06:07:59;;;;;;;13.27;3.33;;;7.40;99.90;;;;;;5042548;28;20132;-83
2021/12/19 06:10:28;;;;;;;13.43;3.75;;;7.30;99.90;;;;;;5043671;28;20086;-82
2021/12/19 06:12:54;;;;;;;12.80;3.58;;;7.40;99.90;;;;;;5043447;28;20106;-83
2021/12/19 06:15:19;;;;;;;7.93;3.35;;;8.20;99.90;;;;;;5044355;28;21011;-83
2021/12/19 06:17:45;;;;;;;9.70;2.78;;;7.30;99.90;;;;;;5042927;28;20040;-83
2021/12/19 06:20:11;;;;;;;7.20;2.88;;;7.30;99.90;;;;;;5042526;28;20073;-83
2021/12/19 06:22:38;;;;;;;16.83;4.25;;;9.30;99.90;;;;;;5043696;28;20053;-83
2021/12/19 06:25:06;;;;;;;12.68;2.92;;;7.40;99.90;;;;;;5042311;28;20045;-83
2021/12/19 06:27:31;;;;;;;11.93;3.50;;;7.30;99.90;;;;;;5043537;28;20041;-83
2021/12/19 06:29:57;;;;;;;17.33;3.83;;;7.40;99.90;;;;;;5043428;28;20384;-83
2021/12/19 06:32:23;;;;;;;13.30;3.85;;;7.30;99.90;;;;;;5044232;28;20041;-83
2021/12/19 06:34:49;;;;;;;7.13;2.53;;;7.40;99.90;;;;;;5044471;28;20124;-82
2021/12/19 06:37:14;;;;;;;12.80;2.63;;;7.30;99.90;;;;;;5044156;28;20579;-83
2021/12/19 06:39:41;;;;;;;15.55;2.88;;;7.60;99.90;;;;;;5044477;28;20472;-82
2021/12/19 06:42:09;;;;;;;11.38;1.80;;;7.30;99.90;;;;;;5041946;28;20098;-83
2021/12/19 06:44:36;;;;;;;8.73;1.70;;;7.30;99.90;;;;;;5042990;28;20053;-83
2021/12/19 06:47:02;;;;;;;6.25;1.90;;;7.30;99.90;;;;;;5043273;28;20095;-83
2021/12/19 06:49:28;;;;;;;10.35;2.25;;;7.30;99.90;;;;;;5042440;28;20045;-83
2021/12/19 06:51:54;;;;;;;13.52;1.98;;;8.20;99.90;;;;;;5042505;28;20064;-82
2021/12/19 06:54:20;;;;;;;14.07;1.75;;;7.30;99.90;;;;;;5043414;28;20037;-83
2021/12/19 06:56:46;;;;;;;12.85;2.30;;;7.30;99.90;;;;;;5043097;28;20044;-84
2021/12/19 06:59:12;;;;;;;10.25;2.30;;;7.30;99.90;;;;;;5043660;28;20033;-83
2021/12/19 07:01:38;;;;;;;11.23;1.75;;;8.60;99.90;;;;;;5042666;28;20051;-83
2021/12/19 07:04:05;;;;;;;6.13;1.35;;;7.30;99.90;;;;;;5043829;28;20080;-82
2021/12/19 07:06:31;;;;;;;11.45;2.60;;;7.30;99.90;;;;;;5043736;28;20132;-83
2021/12/19 07:08:56;;;;;;;7.20;1.85;;;7.30;99.90;;;;;;5042573;28;20128;-82
2021/12/19 07:11:22;;;;;;;7.93;1.75;;;7.50;99.90;;;;;;5043861;28;20524;-82
2021/12/19 07:13:48;;;;;;;11.07;1.58;;;7.30;99.90;;;;;;5043911;28;20155;-82
2021/12/19 07:16:14;;;;;;;13.15;1.77;;;7.40;99.90;;;;;;5025694;28;20048;-82
2021/12/19 07:18:40;;;;;;;8.13;1.70;;;7.30;99.90;;;;;;5042936;28;20033;-83
2021/12/19 07:21:07;;;;;;;15.10;1.88;;;7.30;99.90;;;;;;5043473;28;20469;-83
2021/12/19 07:23:33;;;;;;;13.70;2.33;;;8.90;99.90;;;;;;5042028;28;20101;-82
2021/12/19 07:25:59;;;;;;;16.02;2.00;;;7.30;99.90;;;;;;5043866;28;20045;-83
2021/12/19 07:28:25;;;;;;;7.57;1.75;;;8.70;99.90;;;;;;5043250;28;20052;-83
2021/12/19 07:30:51;;;;;;;15.73;2.40;;;7.30;99.90;;;;;;5042250;28;20091;-83
2021/12/19 07:33:18;;;;;;;14.38;1.83;;;7.40;99.90;;;;;;5042137;28;20412;-83
2021/12/19 07:35:47;;;;;;;16.88;2.60;;;9.20;99.90;;;;;;5042236;28;20492;-83
2021/12/19 07:38:22;;;;;;;9.45;2.17;;;7.50;99.90;;;;;;5042391;28;20041;-82
2021/12/19 07:40:50;;;;;;;11.98;2.05;;;7.40;99.90;;;;;;5043241;28;20048;-81
2021/12/19 07:43:16;;;;;;;13.00;2.30;;;7.80;99.90;;;;;;5041674;28;20053;-83
2021/12/19 07:45:43;;;;;;;10.82;2.13;;;7.40;99.90;;;;;;5043082;28;20049;-83
2021/12/19 07:48:09;;;;;;;9.73;1.83;;;7.40;99.90;;;;;;5043706;28;20044;-83
2021/12/19 07:50:35;;;;;;;20.45;2.10;;;8.40;99.90;;;;;;5041274;28;20052;-83
2021/12/19 07:53:01;;;;;;;6.63;1.75;;;8.30;99.90;;;;;;5059137;28;20045;-83
2021/12/19 07:55:27;;;;;;;9.13;1.90;;;7.60;99.90;;;;;;5041470;28;20507;-82
2021/12/19 07:57:53;;;;;;;14.93;1.85;;;7.40;99.90;;;;;;5041726;28;20044;-82
2021/12/19 08:00:20;;;;;;;13.32;1.83;;;8.20;99.90;;;;;;5043085;28;20041;-83
2021/12/19 08:02:47;;;;;;;15.60;2.20;;;7.60;99.90;;;;;;5041267;28;20763;-84
2021/12/19 08:05:15;;;;;;;14.00;1.52;;;9.30;99.90;;;;;;5041891;28;20053;-84
2021/12/19 08:07:45;;;;;;;12.27;1.50;;;7.40;99.90;;;;;;5044785;28;20048;-84
2021/12/19 08:12:38;;;;;;;6.43;1.63;;;7.50;99.90;;;;;;5045064;28;20049;-85
2021/12/19 08:15:06;;;;;;;9.38;1.35;;;8.20;99.90;;;;;;5044749;28;20056;-85
2021/12/19 08:17:31;;;;;;;9.98;1.48;;;7.50;99.90;;;;;;5061937;28;20051;-83
2021/12/19 08:20:00;;;;;;;10.10;2.05;;;7.50;99.90;;;;;;5044892;28;20443;-86
2021/12/19 08:22:27;;;;;;;8.35;1.48;;;8.70;99.90;;;;;;5028506;28;20056;-86
2021/12/19 08:24:53;;;;;;;10.15;1.55;;;7.50;99.90;;;;;;5027958;28;20562;-84
2021/12/19 08:27:19;;;;;;;8.40;2.25;;;7.50;99.90;;;;;;5028454;28;20081;-83
2021/12/19 08:29:46;;;;;;;15.38;1.92;;;9.10;99.90;;;;;;5045411;28;20059;-83
2021/12/19 08:32:12;;;;;;;15.00;1.95;;;7.50;99.90;;;;;;5044553;28;20045;-84
2021/12/19 08:34:38;;;;;;;6.55;1.38;;;7.50;99.90;;;;;;5027964;28;20492;-85
2021/12/19 08:37:05;;;;;;;7.47;1.52;;;7.50;99.90;;;;;;5046219;28;20048;-83
2021/12/19 08:39:34;;;;;;;14.70;1.73;;;7.50;99.90;;;;;;5044445;28;20055;-81
2021/12/19 08:42:00;;;;;;;7.63;1.20;;;8.60;99.90;;;;;;5040999;28;20056;-83
2021/12/19 08:44:26;;;;;;;11.48;2.13;;;7.70;99.90;;;;;;5046641;28;20045;-84
2021/12/19 08:46:52;;;;;;;6.88;1.35;;;9.60;99.90;;;;;;5045162;28;20159;-84
2021/12/19 08:49:18;;;;;;;10.43;1.65;;;6.40;99.90;;;;;;5046113;28;20296;-84
2021/12/19 08:51:45;;;;;;;12.48;1.60;;;7.50;99.90;;;;;;5044008;28;20480;-82
2021/12/19 08:54:11;;;;;;;5.20;1.13;;;7.60;99.90;;;;;;5044477;28;20041;-86
2021/12/19 08:56:36;;;;;;;9.02;1.88;;;7.90;99.90;;;;;;5063660;28;20091;-81
2021/12/19 08:59:03;;;;;;;10.50;2.53;;;7.60;99.90;;;;;;5044204;28;20055;-82
2021/12/19 09:01:31;;;;;;;12.45;1.73;;;8.90;99.90;;;;;;5028590;28;20115;-83
2021/12/19 09:03:57;;;;;;;5.57;1.30;;;7.60;99.90;;;;;;5045122;28;20049;-84
2021/12/19 09:06:22;;;;;;;9.73;1.77;;;9.40;99.90;;;;;;5044814;28;20049;-83
2021/12/19 09:08:56;;;;;;;8.68;1.27;;;8.90;99.90;;;;;;5060730;28;20037;-84
2021/12/19 09:11:21;;;;;;;8.13;1.50;;;7.70;99.90;;;;;;5043812;28;20044;-84
2021/12/19 09:13:52;;;;;;;15.63;2.03;;;7.70;99.90;;;;;;5042571;28;20049;-84
2021/12/19 09:16:18;;;;;;;8.98;1.65;;;6.30;99.90;;;;;;5043083;28;20126;-83
2021/12/19 09:18:44;;;;;;;8.07;1.17;;;9.20;99.90;;;;;;5045122;28;20079;-83
2021/12/19 09:21:09;;;;;;;12.55;1.88;;;7.70;99.90;;;;;;5043352;28;20045;-83
2021/12/19 09:23:35;;;;;;;13.95;1.77;;;7.70;99.90;;;;;;5041186;28;20037;-84
2021/12/19 09:26:01;;;;;;;3.55;1.10;;;7.70;99.90;;;;;;5023826;28;20048;-83
2021/12/19 09:28:30;;;;;;;9.90;1.42;;;7.70;99.90;;;;;;5040486;28;20139;-83
2021/12/19 09:31:45;;;;;;;10.23;1.65;;;7.70;99.90;;;;;;5022768;28;20036;-83
2021/12/19 09:34:49;;;;;;;;;;;;;;;;;;;;;
2021/12/19 09:37:54;;;;;;;9.82;1.52;;;6.00;99.90;;;;;;5038242;28;20056;-84
2021/12/19 09:40:22;;;;;;;13.32;1.98;;;7.20;99.90;;;;;;5043415;28;20041;-84
2021/12/19 09:42:52;;;;;;;16.58;2.20;;;7.70;99.90;;;;;;5043258;28;20394;-82
2021/12/19 09:45:19;;;;;;;10.80;1.77;;;7.80;99.90;;;;;;5044704;28;20520;-83
2021/12/19 09:47:45;;;;;;;8.82;2.10;;;7.80;99.90;;;;;;5042775;28;20049;-82
2021/12/19 09:50:12;;;;;;;16.65;1.50;;;7.80;99.90;;;;;;5045433;28;20171;-82
2021/12/19 09:52:38;;;;;;;7.15;1.65;;;7.90;99.90;;;;;;5026546;28;20044;-82
2021/12/19 09:55:04;;;;;;;11.27;1.90;;;7.90;99.90;;;;;;5025918;28;20558;-80
2021/12/19 09:57:30;;;;;;;9.60;2.13;;;7.90;99.90;;;;;;5042750;28;20041;-79
2021/12/19 09:59:56;;;;;;;12.75;2.53;;;7.90;99.90;;;;;;5042858;28;20051;-82
2021/12/19 10:02:27;;;;;;;10.10;1.42;;;8.90;99.90;;;;;;5040420;28;20132;-87
2021/12/19 10:04:53;;;;;;;7.50;1.23;;;9.10;99.90;;;;;;5042466;28;20041;-83
2021/12/19 10:07:23;;;;;;;7.93;1.58;;;7.90;99.90;;;;;;5043235;28;20178;-84
2021/12/19 10:10:01;;;;;;;7.70;1.20;;;7.90;99.90;;;;;;5045053;28;20041;-82
2021/12/19 10:15:09;;;;;;;8.38;1.08;;;8.30;99.90;;;;;;5043216;28;20044;-83
2021/12/19 10:17:35;;;;;;;11.45;1.30;;;7.90;99.90;;;;;;5043024;28;20496;-82
2021/12/19 10:20:03;;;;;;;14.68;1.63;;;8.00;99.90;;;;;;5042930;28;20045;-83
2021/12/19 10:22:37;;;;;;;9.18;1.30;;;7.90;99.90;;;;;;5043431;28;20079;-83
2021/12/19 10:25:17;;;;;;;4.38;1.13;;;7.90;99.90;;;;;;5042715;28;20045;-82
2021/12/19 10:27:55;;;;;;;6.32;1.70;;;7.90;99.90;;;;;;5044019;28;20186;-83
2021/12/19 10:30:24;;;;;;;4.93;1.23;;;7.90;99.90;;;;;;5042622;28;20095;-83
2021/12/19 10:33:00;;;;;;;11.18;1.40;;;9.60;99.90;;;;;;5042444;28;20045;-82
2021/12/19 10:35:32;;;;;;;10.48;1.48;;;8.00;99.90;;;;;;5042471;28;20044;-82
2021/12/19 10:38:00;;;;;;;9.30;1.20;;;8.00;99.90;;;;;;5042914;28;20170;-81
2021/12/19 10:40:26;;;;;;;8.88;1.08;;;8.00;99.90;;;;;;5044231;28;20104;-82
2021/12/19 10:43:03;;;;;;;12.48;1.38;;;10.10;99.90;;;;;;5042352;28;20056;-83
2021/12/19 10:45:55;;;;;;;12.85;1.48;;;8.50;99.90;;;;;;5041036;28;20061;-82
2021/12/19 10:48:41;;;;;;;11.50;0.95;;;8.10;99.90;;;;;;5042140;28;20489;-81
2021/12/19 10:51:09;;;;;;;7.72;1.23;;;8.00;99.90;;;;;;5043778;28;20041;-82
2021/12/19 10:53:42;;;;;;;9.00;1.00;;;9.20;99.90;;;;;;5043443;28;20500;-82
2021/12/19 10:56:20;;;;;;;9.32;1.65;;;8.10;99.90;;;;;;5043870;28;20041;-82
2021/12/19 10:58:51;;;;;;;10.32;1.10;;;8.10;99.90;;;;;;5042197;28;20048;-83
2021/12/19 11:01:21;;;;;;;11.90;1.50;;;8.10;99.90;;;;;;5043877;28;20374;-83
2021/12/19 11:04:00;;;;;;;13.60;2.08;;;8.30;99.90;;;;;;5042702;28;20041;-83
2021/12/19 11:06:29;;;;;;;12.35;1.40;;;8.20;99.90;;;;;;5043970;28;20317;-82
2021/12/19 11:08:59;;;;;;;12.07;3.00;;;8.20;99.90;;;;;;5042302;28;20114;-82
2021/12/19 11:12:03;;;;;;;15.98;2.45;;;8.20;99.90;;;;;;5042442;28;20396;-82
2021/12/19 11:14:38;;;;;;;17.90;2.45;;;8.20;99.90;;;;;;5042590;28;20574;-82
2021/12/19 11:17:15;;;;;;;11.65;1.30;;;8.20;99.90;;;;;;5043359;28;20064;-83
2021/12/19 11:19:42;;;;;;;11.07;1.75;;;8.20;99.90;;;;;;5042444;28;20048;-83
2021/12/19 11:22:09;;;;;;;12.73;1.20;;;8.20;99.90;;;;;;5041842;28;20041;-83
2021/12/19 11:24:36;;;;;;;10.05;1.20;;;8.20;99.90;;;;;;5041784;28;20120;-83
2021/12/19 11:27:05;;;;;;;12.13;2.15;;;8.20;99.90;;;;;;5041785;28;20519;-82
2021/12/19 11:29:31;;;;;;;16.05;2.05;;;8.20;99.90;;;;;;5041617;28;20545;-83
2021/12/19 11:32:01;;;;;;;14.65;2.15;;;8.20;99.90;;;;;;5043494;28;20087;-83
2021/12/19 11:34:44;;;;;;;11.23;1.65;;;8.20;99.90;;;;;;5043406;28;20041;-83
2021/12/19 11:37:13;;;;;;;15.05;2.03;;;8.30;99.90;;;;;;5043592;28;20072;-83
2021/12/19 11:39:49;;;;;;;15.23;2.05;;;8.30;99.90;;;;;;5043321;28;20373;-83
2021/12/19 11:42:19;;;;;;;13.13;1.95;;;9.90;99.90;;;;;;5046365;28;20071;-83
2021/12/19 11:47:37;;;;;;;13.43;1.85;;;8.40;99.90;;;;;;5051782;28;20117;-84
2021/12/19 11:50:19;;;;;;;11.43;2.25;;;8.40;99.90;;;;;;5053487;28;20210;-83
2021/12/19 11:52:45;;;;;;;13.90;1.88;;;8.40;99.90;;;;;;5050753;28;20056;-85
2021/12/19 11:55:14;;;;;;;12.18;1.90;;;8.40;99.90;;;;;;5027894;28;20049;-84
2021/12/19 11:58:00;;;;;;;20.15;2.08;;;8.40;99.90;;;;;;5045917;28;20132;-83
2021/12/19 12:00:34;;;;;;;10.40;1.95;;;8.40;99.90;;;;;;5045176;28;20491;-82
2021/12/19 12:03:12;;;;;;;13.35;2.22;;;9.20;99.90;;;;;;5045318;28;20052;-83
2021/12/19 12:05:58;;;;;;;14.88;2.53;;;8.60;99.90;;;;;;5045986;28;20415;-83
2021/12/19 12:08:25;;;;;;;13.77;2.25;;;8.50;99.90;;;;;;5045028;28;20087;-83
2021/12/19 12:10:59;;;;;;;9.98;2.03;;;8.90;99.90;;;;;;5045526;28;20037;-83
2021/12/19 12:13:31;;;;;;;15.90;2.08;;;9.30;99.90;;;;;;5044824;28;20049;-81
2021/12/19 12:16:34;;;;;;;11.15;1.40;;;6.60;99.90;;;;;;5044873;28;20052;-87
2021/12/19 12:19:03;;;;;;;13.35;1.60;;;8.50;99.90;;;;;;5044861;28;20115;-85
2021/12/19 12:21:39;;;;;;;14.05;1.40;;;8.60;99.90;;;;;;5045644;28;20416;-85
2021/12/19 12:24:07;;;;;;;13.85;2.08;;;9.80;99.90;;;;;;5046441;28;20045;-90
2021/12/19 12:26:44;;;;;;;13.93;2.10;;;8.50;99.90;;;;;;5028583;28;20049;-86
2021/12/19 12:29:11;;;;;;;10.43;1.63;;;8.50;99.90;;;;;;5028601;28;20120;-84
2021/12/19 12:31:38;;;;;;;14.68;1.65;;;8.50;99.90;;;;;;5044963;28;20049;-84
2021/12/19 12:34:09;;;;;;;15.90;2.22;;;9.50;99.90;;;;;;5061412;28;20053;-84
2021/12/19 12:36:35;;;;;;;14.20;2.08;;;8.40;99.90;;;;;;5046132;28;20120;-86
2021/12/19 12:39:06;;;;;;;16.48;1.75;;;8.40;99.90;;;;;;5028219;28;20396;-84
2021/12/19 12:44:09;;;;;;;10.93;1.70;;;8.30;99.90;;;;;;5044529;28;20064;-85
2021/12/19 12:46:36;;;;;;;7.95;1.33;;;8.40;99.90;;;;;;5044700;28;20045;-85
2021/12/19 12:49:07;;;;;;;13.40;1.60;;;8.40;99.90;;;;;;5044345;28;20052;-85
2021/12/19 12:51:34;;;;;;;8.40;1.60;;;8.40;99.90;;;;;;5044732;28;20045;-84
2021/12/19 12:54:09;;;;;;;4.60;1.10;;;10.20;99.90;;;;;;5043250;28;20190;-84
2021/12/19 12:56:42;;;;;;;12.95;1.88;;;8.30;99.90;;;;;;5044745;28;20068;-85
2021/12/19 12:59:09;;;;;;;12.95;1.60;;;8.40;99.90;;;;;;5044032;28;20122;-87
2021/12/19 13:01:45;;;;;;;14.75;1.55;;;8.40;99.90;;;;;;5044424;28;20481;-86
2021/12/19 13:04:20;;;;;;;20.15;2.08;;;8.40;99.90;;;;;;5045177;28;20493;-86
2021/12/19 13:06:53;;;;;;;18.30;2.28;;;8.40;99.90;;;;;;5045284;28;20041;-85
2021/12/19 13:09:39;;;;;;;19.13;2.13;;;8.40;99.90;;;;;;5044835;28;20087;-85
2021/12/19 13:12:27;;;;;;;18.25;2.15;;;8.30;99.90;;;;;;5044836;28;20399;-85
2021/12/19 13:15:01;;;;;;;17.88;2.35;;;8.30;99.90;;;;;;5027164;28;20049;-86
2021/12/19 13:17:34;;;;;;;13.70;1.92;;;8.30;99.90;;;;;;5042776;28;20048;-85
2021/12/19 13:19:59;;;;;;;;;;;8.30;99.90;;;;;;5044154;28;20060;-84
2021/12/19 13:22:34;;;;;;;10.30;1.17;;;8.30;99.90;;;;;;5026953;28;19920;-85
2021/12/19 13:25:07;;;;;;;21.88;2.38;;;8.40;99.90;;;;;;5043363;28;20322;-85
2021/12/19 13:27:36;;;;;;;7.65;1.23;;;8.30;99.90;;;;;;5042745;28;20081;-85
2021/12/19 13:30:12;;;;;;;19.30;2.28;;;8.30;99.90;;;;;;5044034;28;20473;-86
2021/12/19 13:32:51;;;;;;;20.15;2.28;;;8.40;99.90;;;;;;5026894;28;20084;-85
2021/12/19 13:35:24;;;;;;;13.38;1.48;;;8.40;99.90;;;;;;5043367;28;20056;-85
2021/12/19 13:37:54;;;;;;;11.90;1.60;;;8.50;99.90;;;;;;5043164;28;20048;-88
2021/12/19 13:40:24;;;;;;;9.93;1.65;;;9.30;99.90;;;;;;5026949;28;20040;-85
2021/12/19 13:43:02;;;;;;;13.90;2.05;;;8.50;99.90;;;;;;5043456;28;20217;-86
2021/12/19 13:45:30;;;;;;;18.27;1.90;;;8.50;99.90;;;;;;5042561;28;20061;-86
2021/12/19 13:47:59;;;;;;;12.20;1.80;;;10.10;99.90;;;;;;5043336;28;20045;-86
2021/12/19 13:50:26;;;;;;;12.55;2.10;;;9.60;99.90;;;;;;5041066;28;20045;-85
2021/12/19 13:52:52;;;;;;;18.05;2.08;;;8.50;99.90;;;;;;5043099;28;20045;-86
2021/12/19 13:55:18;;;;;;;17.90;1.80;;;8.50;99.90;;;;;;5058799;28;20056;-85
2021/12/19 13:57:45;;;;;;;21.98;2.22;;;10.20;99.90;;;;;;5042161;28;20072;-85
2021/12/19 14:00:32;;;;;;;11.15;1.20;;;8.50;99.90;;;;;;5043333;28;20048;-86
2021/12/19 14:02:58;;;;;;;17.92;1.70;;;8.40;99.90;;;;;;5042740;28;20053;-86
2021/12/19 14:05:41;;;;;;;11.05;1.75;;;8.40;99.90;;;;;;5026027;28;20060;-85
2021/12/19 14:08:36;;;;;;;7.40;1.08;;;8.10;99.90;;;;;;5042917;28;20073;-86
2021/12/19 14:11:14;;;;;;;13.02;1.33;;;8.40;99.90;;;;;;5047568;28;20063;-86
2021/12/19 14:13:43;;;;;;;16.45;1.73;;;8.40;99.90;;;;;;5026674;28;20420;-86